Arctic Hooper — VD3837 — position and weather

sailwx.info

Track history (hours):
 
Tides and Currents Weather Stations Pressure Air Temp Water Temp Dewpoint Dewpoint Depression Visibility Wind Speed Wind Dir Waves Ship Positions

Arctic Hooper

Last reported at 2018-Jan-19 09:21 UTC. Time now 2018-Jan-19 15:40 UTC.
Position N 49°11' W 123°35'.

Length 30 m; draft 5.1 m.

Type: Towing. MMSI: 316001068.

Date/timePositionNaut miles runAvg speedWind from/ knotsBaromVisibWave heightAir tempDewpointWater temp
2018-Jan-19 09:21N 49°11' W 123°35'3 8.8
2018-Jan-19 08:58N 49°09' W 123°30'4 8.6
2018-Jan-19 08:30N 49°08' W 123°24'4 8.6
2018-Jan-19 08:00N 49°06' W 123°18'5 9.7
2018-Jan-19 07:29N 49°07' W 123°11'11 9.9
2018-Jan-19 06:23N 49°11' W 122°55'1 2.4
2018-Jan-19 06:00N 49°12' W 122°54'0 0.0
2018-Jan-19 05:29N 49°12' W 122°54'0 0.0
2018-Jan-19 05:00N 49°12' W 122°54'0 0.2
2018-Jan-19 04:30N 49°12' W 122°55'3 5.6
2018-Jan-19 03:59N 49°09' W 122°57'3 6.2
2018-Jan-19 03:30N 49°09' W 123°02'3 6.1
2018-Jan-19 03:00N 49°07' W 123°06'3 6.1
2018-Jan-19 02:28N 49°07' W 123°11'3 6.1
2018-Jan-19 02:00N 49°08' W 123°15'3 6.0
2018-Jan-19 01:30N 49°07' W 123°19'3 6.5
2018-Jan-19 00:59N 49°09' W 123°23'3 6.6
2018-Jan-19 00:30N 49°11' W 123°27'3 6.5
2018-Jan-19 00:00N 49°13' W 123°31'4 6.9
2018-Jan-18 23:29N 49°13' W 123°37'4 0.3
2018-Jan-18 09:13N 49°10' W 123°33'2 7.9
2018-Jan-18 08:58N 49°09' W 123°30'4 8.1
2018-Jan-18 08:30N 49°08' W 123°24'4 8.2
2018-Jan-18 08:00N 49°06' W 123°19'5 9.7
2018-Jan-18 07:29N 49°07' W 123°11'610.2
2018-Jan-18 06:54N 49°09' W 123°02'410.3
2018-Jan-18 06:29N 49°10' W 122°56'2 4.4
2018-Jan-18 06:00N 49°12' W 122°54'0 0.0
2018-Jan-18 05:28N 49°12' W 122°54'0 0.0
2018-Jan-18 04:56N 49°12' W 122°54'0 0.2
2018-Jan-18 04:30N 49°12' W 122°55'3 4.8
2018-Jan-18 03:59N 49°10' W 122°57'3 6.1
2018-Jan-18 03:30N 49°09' W 123°01'3 6.4
2018-Jan-18 02:57N 49°07' W 123°05'3 6.4
2018-Jan-18 02:27N 49°07' W 123°10'3 6.3
2018-Jan-18 01:59N 49°08' W 123°15'3 6.0
2018-Jan-18 01:30N 49°07' W 123°19'3 7.0
2018-Jan-18 01:00N 49°08' W 123°24'7 7.3
2018-Jan-18 00:00N 49°12' W 123°33'0 7.1
2018-Jan-17 23:56N 49°13' W 123°34'  
2018-Jan-12 10:13N 49°10' W 123°35'2 8.1
2018-Jan-12 10:00N 49°09' W 123°32'4 8.1
2018-Jan-12 09:29N 49°08' W 123°26'4 8.0
2018-Jan-12 09:00N 49°06' W 123°21'4 7.0
2018-Jan-12 08:30N 49°07' W 123°15'4 7.6
2018-Jan-12 07:59N 49°07' W 123°10'5 8.7
2018-Jan-12 07:28N 49°08' W 123°03'4 9.3
2018-Jan-12 07:00N 49°10' W 122°57'3 5.0
2018-Jan-12 06:28N 49°12' W 122°54'0 0.0
2018-Jan-12 05:58N 49°12' W 122°54'0 0.0
2018-Jan-12 05:30N 49°12' W 122°54'0 0.2
2018-Jan-12 05:00N 49°12' W 122°55'2 4.8
2018-Jan-12 04:30N 49°10' W 122°57'3 5.1
2018-Jan-12 04:00N 49°09' W 123°00'2 4.5
2018-Jan-12 03:30N 49°08' W 123°03'2 4.1
2018-Jan-12 02:59N 49°07' W 123°06'2 4.1
2018-Jan-12 02:30N 49°07' W 123°09'2 4.0
2018-Jan-12 02:00N 49°07' W 123°12'2 4.4
2018-Jan-12 01:30N 49°07' W 123°15'3 5.4
2018-Jan-12 00:59N 49°06' W 123°19'4 7.6
2018-Jan-12 00:30N 49°07' W 123°25'5 7.9
2018-Jan-11 23:50N 49°09' W 123°32'3 7.5
2018-Jan-11 23:29N 49°10' W 123°36'3 0.2
2018-Jan-11 10:01N 49°10' W 123°32'0 8.0
2018-Jan-11 09:58N 49°09' W 123°31'4 7.8
2018-Jan-11 09:31N 49°08' W 123°26'4 7.9
2018-Jan-11 09:00N 49°07' W 123°21'3 7.0
2018-Jan-11 08:30N 49°07' W 123°15'4 7.6
2018-Jan-11 08:00N 49°07' W 123°10'4 8.5
2018-Jan-11 07:29N 49°08' W 123°03'4 8.7
2018-Jan-11 07:00N 49°09' W 122°57'3 5.5
2018-Jan-11 06:27N 49°12' W 122°54'0 0.0
2018-Jan-11 05:45N 49°12' W 122°54'0 0.0
2018-Jan-11 05:23N 49°12' W 122°54'0 0.7
2018-Jan-11 05:00N 49°12' W 122°55'3 5.1
2018-Jan-11 04:28N 49°09' W 122°57'2 5.3
2018-Jan-11 04:01N 49°09' W 123°01'2 4.6
2018-Jan-11 03:30N 49°08' W 123°04'2 4.6
2018-Jan-11 02:58N 49°07' W 123°07'2 4.0
2018-Jan-11 02:27N 49°07' W 123°10'2 4.1
2018-Jan-11 02:00N 49°08' W 123°13'2 3.8
2018-Jan-11 01:30N 49°07' W 123°16'2 4.6
2018-Jan-11 00:59N 49°06' W 123°19'3 6.7
2018-Jan-11 00:30N 49°06' W 123°24'4 7.7
2018-Jan-11 00:00N 49°08' W 123°29'4 7.5
2018-Jan-10 23:30N 49°09' W 123°34'9 0.7
2018-Jan-10 11:30N 49°12' W 123°47'6 7.5
2018-Jan-10 10:41N 49°10' W 123°38'3 7.3
2018-Jan-10 10:19N 49°09' W 123°35'3 7.2
2018-Jan-10 09:57N 49°08' W 123°31'4 7.3
2018-Jan-10 09:27N 49°07' W 123°26'3 7.4
2018-Jan-10 09:00N 49°06' W 123°21'4 7.3
2018-Jan-10 08:29N 49°07' W 123°15'4 7.6
2018-Jan-10 07:59N 49°07' W 123°10'4 8.5
2018-Jan-10 07:30N 49°08' W 123°04'4 8.4
2018-Jan-10 07:00N 49°09' W 122°57'3 6.2
2018-Jan-10 06:30N 49°12' W 122°54'0 0.0
2018-Jan-10 06:00N 49°12' W 122°54'0 0.0
2018-Jan-10 05:30N 49°12' W 122°54'0 0.0
2018-Jan-10 04:59N 49°12' W 122°54'1 2.7
2018-Jan-10 04:30N 49°11' W 122°55'3 5.2
2018-Jan-10 04:00N 49°09' W 122°59'3 5.5
2018-Jan-10 03:29N 49°08' W 123°03'2 5.1
2018-Jan-10 03:00N 49°07' W 123°06'2 4.7
2018-Jan-10 02:30N 49°07' W 123°10'2 4.5
2018-Jan-10 02:00N 49°08' W 123°13'2 4.2
2018-Jan-10 01:30N 49°07' W 123°16'2 4.4
2018-Jan-10 01:00N 49°06' W 123°19'3 7.1
2018-Jan-10 00:30N 49°07' W 123°24'4 7.3
2018-Jan-10 00:00N 49°08' W 123°29'4 7.4
2018-Jan-09 23:28N 49°09' W 123°35'4 7.6
2018-Jan-09 22:59N 49°10' W 123°40'5 0.3
2018-Jan-09 09:41N 49°10' W 123°33'2 7.7
2018-Jan-09 09:28N 49°10' W 123°31'  
Track history (hours):
 
Tides and Currents Weather Stations Pressure Air Temp Water Temp Dewpoint Dewpoint Depression Visibility Wind Speed Wind Dir Waves Ship Positions

Arctic Hooper

Last reported at 2018-Jan-19 09:21 UTC. Time now 2018-Jan-19 15:41 UTC.
Position N 49°11' W 123°35'.

Length 30 m; draft 5.1 m.

Type: Towing. MMSI: 316001068.

Date/timePositionNaut miles runAvg speedWind from/ knotsBaromVisibWave heightAir tempDewpointWater temp
2018-Jan-19 09:21N 49°11' W 123°35'3 8.8
2018-Jan-19 08:58N 49°09' W 123°30'4 8.6
2018-Jan-19 08:30N 49°08' W 123°24'4 8.6
2018-Jan-19 08:00N 49°06' W 123°18'5 9.7
2018-Jan-19 07:29N 49°07' W 123°11'11 9.9
2018-Jan-19 06:23N 49°11' W 122°55'1 2.4
2018-Jan-19 06:00N 49°12' W 122°54'0 0.0
2018-Jan-19 05:29N 49°12' W 122°54'0 0.0
2018-Jan-19 05:00N 49°12' W 122°54'0 0.2
2018-Jan-19 04:30N 49°12' W 122°55'3 5.6
2018-Jan-19 03:59N 49°09' W 122°57'3 6.2
2018-Jan-19 03:30N 49°09' W 123°02'3 6.1
2018-Jan-19 03:00N 49°07' W 123°06'3 6.1
2018-Jan-19 02:28N 49°07' W 123°11'3 6.1
2018-Jan-19 02:00N 49°08' W 123°15'3 6.0
2018-Jan-19 01:30N 49°07' W 123°19'3 6.5
2018-Jan-19 00:59N 49°09' W 123°23'3 6.6
2018-Jan-19 00:30N 49°11' W 123°27'3 6.5
2018-Jan-19 00:00N 49°13' W 123°31'4 6.9
2018-Jan-18 23:29N 49°13' W 123°37'4 0.3
2018-Jan-18 09:13N 49°10' W 123°33'2 7.9
2018-Jan-18 08:58N 49°09' W 123°30'4 8.1
2018-Jan-18 08:30N 49°08' W 123°24'4 8.2
2018-Jan-18 08:00N 49°06' W 123°19'5 9.7
2018-Jan-18 07:29N 49°07' W 123°11'610.2
2018-Jan-18 06:54N 49°09' W 123°02'410.3
2018-Jan-18 06:29N 49°10' W 122°56'2 4.4
2018-Jan-18 06:00N 49°12' W 122°54'0 0.0
2018-Jan-18 05:28N 49°12' W 122°54'0 0.0
2018-Jan-18 04:56N 49°12' W 122°54'0 0.2
2018-Jan-18 04:30N 49°12' W 122°55'3 4.8
2018-Jan-18 03:59N 49°10' W 122°57'3 6.1
2018-Jan-18 03:30N 49°09' W 123°01'3 6.4
2018-Jan-18 02:57N 49°07' W 123°05'3 6.4
2018-Jan-18 02:27N 49°07' W 123°10'3 6.3
2018-Jan-18 01:59N 49°08' W 123°15'3 6.0
2018-Jan-18 01:30N 49°07' W 123°19'3 7.0
2018-Jan-18 01:00N 49°08' W 123°24'7 7.3
2018-Jan-18 00:00N 49°12' W 123°33'0 7.1
2018-Jan-17 23:56N 49°13' W 123°34'  
2018-Jan-12 10:13N 49°10' W 123°35'2 8.1
2018-Jan-12 10:00N 49°09' W 123°32'4 8.1
2018-Jan-12 09:29N 49°08' W 123°26'4 8.0
2018-Jan-12 09:00N 49°06' W 123°21'4 7.0
2018-Jan-12 08:30N 49°07' W 123°15'4 7.6
2018-Jan-12 07:59N 49°07' W 123°10'5 8.7
2018-Jan-12 07:28N 49°08' W 123°03'4 9.3
2018-Jan-12 07:00N 49°10' W 122°57'3 5.0
2018-Jan-12 06:28N 49°12' W 122°54'0 0.0
2018-Jan-12 05:58N 49°12' W 122°54'0 0.0
2018-Jan-12 05:30N 49°12' W 122°54'0 0.2
2018-Jan-12 05:00N 49°12' W 122°55'2 4.8
2018-Jan-12 04:30N 49°10' W 122°57'3 5.1
2018-Jan-12 04:00N 49°09' W 123°00'2 4.5
2018-Jan-12 03:30N 49°08' W 123°03'2 4.1
2018-Jan-12 02:59N 49°07' W 123°06'2 4.1
2018-Jan-12 02:30N 49°07' W 123°09'2 4.0
2018-Jan-12 02:00N 49°07' W 123°12'2 4.4
2018-Jan-12 01:30N 49°07' W 123°15'3 5.4
2018-Jan-12 00:59N 49°06' W 123°19'4 7.6
2018-Jan-12 00:30N 49°07' W 123°25'5 7.9
2018-Jan-11 23:50N 49°09' W 123°32'3 7.5
2018-Jan-11 23:29N 49°10' W 123°36'3 0.2
2018-Jan-11 10:01N 49°10' W 123°32'0 8.0
2018-Jan-11 09:58N 49°09' W 123°31'4 7.8
2018-Jan-11 09:31N 49°08' W 123°26'4 7.9
2018-Jan-11 09:00N 49°07' W 123°21'3 7.0
2018-Jan-11 08:30N 49°07' W 123°15'4 7.6
2018-Jan-11 08:00N 49°07' W 123°10'4 8.5
2018-Jan-11 07:29N 49°08' W 123°03'4 8.7
2018-Jan-11 07:00N 49°09' W 122°57'3 5.5
2018-Jan-11 06:27N 49°12' W 122°54'0 0.0
2018-Jan-11 05:45N 49°12' W 122°54'0 0.0
2018-Jan-11 05:23N 49°12' W 122°54'0 0.7
2018-Jan-11 05:00N 49°12' W 122°55'3 5.1
2018-Jan-11 04:28N 49°09' W 122°57'2 5.3
2018-Jan-11 04:01N 49°09' W 123°01'2 4.6
2018-Jan-11 03:30N 49°08' W 123°04'2 4.6
2018-Jan-11 02:58N 49°07' W 123°07'2 4.0
2018-Jan-11 02:27N 49°07' W 123°10'2 4.1
2018-Jan-11 02:00N 49°08' W 123°13'2 3.8
2018-Jan-11 01:30N 49°07' W 123°16'2 4.6
2018-Jan-11 00:59N 49°06' W 123°19'3 6.7
2018-Jan-11 00:30N 49°06' W 123°24'4 7.7
2018-Jan-11 00:00N 49°08' W 123°29'4 7.5
2018-Jan-10 23:30N 49°09' W 123°34'9 0.7
2018-Jan-10 11:30N 49°12' W 123°47'6 7.5
2018-Jan-10 10:41N 49°10' W 123°38'3 7.3
2018-Jan-10 10:19N 49°09' W 123°35'3 7.2
2018-Jan-10 09:57N 49°08' W 123°31'4 7.3
2018-Jan-10 09:27N 49°07' W 123°26'3 7.4
2018-Jan-10 09:00N 49°06' W 123°21'4 7.3
2018-Jan-10 08:29N 49°07' W 123°15'4 7.6
2018-Jan-10 07:59N 49°07' W 123°10'4 8.5
2018-Jan-10 07:30N 49°08' W 123°04'4 8.4
2018-Jan-10 07:00N 49°09' W 122°57'3 6.2
2018-Jan-10 06:30N 49°12' W 122°54'0 0.0
2018-Jan-10 06:00N 49°12' W 122°54'0 0.0
2018-Jan-10 05:30N 49°12' W 122°54'0 0.0
2018-Jan-10 04:59N 49°12' W 122°54'1 2.7
2018-Jan-10 04:30N 49°11' W 122°55'3 5.2
2018-Jan-10 04:00N 49°09' W 122°59'3 5.5
2018-Jan-10 03:29N 49°08' W 123°03'2 5.1
2018-Jan-10 03:00N 49°07' W 123°06'2 4.7
2018-Jan-10 02:30N 49°07' W 123°10'2 4.5
2018-Jan-10 02:00N 49°08' W 123°13'2 4.2
2018-Jan-10 01:30N 49°07' W 123°16'2 4.4
2018-Jan-10 01:00N 49°06' W 123°19'3 7.1
2018-Jan-10 00:30N 49°07' W 123°24'4 7.3
2018-Jan-10 00:00N 49°08' W 123°29'4 7.4
2018-Jan-09 23:28N 49°09' W 123°35'4 7.6
2018-Jan-09 22:59N 49°10' W 123°40'5 0.3
2018-Jan-09 09:41N 49°10' W 123°33'2 7.7
2018-Jan-09 09:28N 49°10' W 123°31'  

Dump ship's entire track history